sensor_id;sensor_type;location;lat;lon;timestamp;pressure;altitude;pressure_sealevel;temperature;humidity
48874;BME280;35220;46.204;5.220;2022-09-21T00:02:30;99152.59;;;11.89;57.32
48874;BME280;35220;46.204;5.220;2022-09-21T00:07:30;99155.66;;;11.86;57.60
48874;BME280;35220;46.204;5.220;2022-09-21T00:12:30;99154.75;;;11.75;56.96
48874;BME280;35220;46.204;5.220;2022-09-21T00:17:31;99153.41;;;11.72;57.59
48874;BME280;35220;46.204;5.220;2022-09-21T00:22:32;99149.22;;;11.71;57.14
48874;BME280;35220;46.204;5.220;2022-09-21T00:27:33;99149.88;;;11.61;57.90
48874;BME280;35220;46.204;5.220;2022-09-21T00:32:36;99141.94;;;11.51;58.58
48874;BME280;35220;46.204;5.220;2022-09-21T00:37:36;99142.19;;;11.50;58.10
48874;BME280;35220;46.204;5.220;2022-09-21T00:42:37;99138.66;;;11.39;58.33
48874;BME280;35220;46.204;5.220;2022-09-21T00:47:40;99143.47;;;11.30;59.21
48874;BME280;35220;46.204;5.220;2022-09-21T00:52:47;99142.94;;;11.28;59.82
48874;BME280;35220;46.204;5.220;2022-09-21T00:57:53;99150.19;;;11.26;59.79
48874;BME280;35220;46.204;5.220;2022-09-21T01:02:55;99141.50;;;11.20;59.17
48874;BME280;35220;46.204;5.220;2022-09-21T01:08:03;99149.34;;;11.03;60.98
48874;BME280;35220;46.204;5.220;2022-09-21T01:18:51;99139.00;;;10.92;59.90
48874;BME280;35220;46.204;5.220;2022-09-21T01:24:11;99134.75;;;10.86;62.12
48874;BME280;35220;46.204;5.220;2022-09-21T01:34:28;99129.50;;;10.69;62.73
48874;BME280;35220;46.204;5.220;2022-09-21T01:39:32;99136.44;;;10.63;61.65
48874;BME280;35220;46.204;5.220;2022-09-21T01:44:37;99140.31;;;10.60;62.18
48874;BME280;35220;46.204;5.220;2022-09-21T01:49:53;99122.22;;;10.54;63.15
48874;BME280;35220;46.204;5.220;2022-09-21T01:55:00;99128.03;;;10.44;63.08
48874;BME280;35220;46.204;5.220;2022-09-21T02:00:04;99124.34;;;10.40;62.77
48874;BME280;35220;46.204;5.220;2022-09-21T02:05:06;99126.53;;;10.31;63.20
48874;BME280;35220;46.204;5.220;2022-09-21T02:10:09;99121.75;;;10.28;63.64
48874;BME280;35220;46.204;5.220;2022-09-21T02:15:12;99112.81;;;10.24;62.46
48874;BME280;35220;46.204;5.220;2022-09-21T02:20:19;99118.94;;;10.18;64.26
48874;BME280;35220;46.204;5.220;2022-09-21T02:26:32;99120.34;;;10.08;64.98
48874;BME280;35220;46.204;5.220;2022-09-21T02:31:14;99120.88;;;9.94;65.56
48874;BME280;35220;46.204;5.220;2022-09-21T02:36:26;99115.31;;;9.90;65.30
48874;BME280;35220;46.204;5.220;2022-09-21T02:41:35;99108.75;;;9.87;64.40
48874;BME280;35220;46.204;5.220;2022-09-21T02:46:45;99107.41;;;9.85;65.04
48874;BME280;35220;46.204;5.220;2022-09-21T02:51:50;99104.25;;;9.83;64.39
48874;BME280;35220;46.204;5.220;2022-09-21T02:56:53;99098.97;;;9.78;64.30
48874;BME280;35220;46.204;5.220;2022-09-21T03:01:54;99103.50;;;9.70;64.22
48874;BME280;35220;46.204;5.220;2022-09-21T03:06:54;99102.13;;;9.68;65.45
48874;BME280;35220;46.204;5.220;2022-09-21T03:11:56;99108.81;;;9.64;64.72
48874;BME280;35220;46.204;5.220;2022-09-21T03:16:56;99111.53;;;9.69;65.26
48874;BME280;35220;46.204;5.220;2022-09-21T03:21:56;99104.41;;;9.64;63.83
48874;BME280;35220;46.204;5.220;2022-09-21T03:26:57;99096.25;;;9.61;64.62
48874;BME280;35220;46.204;5.220;2022-09-21T03:31:57;99088.84;;;9.52;64.37
48874;BME280;35220;46.204;5.220;2022-09-21T03:36:57;99098.81;;;9.44;64.45
48874;BME280;35220;46.204;5.220;2022-09-21T03:41:59;99091.66;;;9.39;65.09
48874;BME280;35220;46.204;5.220;2022-09-21T03:47:00;99098.34;;;9.35;64.63
48874;BME280;35220;46.204;5.220;2022-09-21T03:52:00;99105.47;;;9.40;64.37
48874;BME280;35220;46.204;5.220;2022-09-21T03:57:01;99098.69;;;9.39;64.54
48874;BME280;35220;46.204;5.220;2022-09-21T04:02:01;99104.44;;;9.29;65.23
48874;BME280;35220;46.204;5.220;2022-09-21T04:07:02;99101.06;;;9.28;64.52
48874;BME280;35220;46.204;5.220;2022-09-21T04:12:02;99109.19;;;9.32;64.63
48874;BME280;35220;46.204;5.220;2022-09-21T04:17:03;99113.72;;;9.25;65.41
48874;BME280;35220;46.204;5.220;2022-09-21T04:22:03;99113.28;;;9.16;65.10
48874;BME280;35220;46.204;5.220;2022-09-21T04:27:04;99111.69;;;9.03;65.93
48874;BME280;35220;46.204;5.220;2022-09-21T04:32:04;99114.75;;;9.00;65.69
48874;BME280;35220;46.204;5.220;2022-09-21T04:37:05;99110.56;;;8.99;66.02
48874;BME280;35220;46.204;5.220;2022-09-21T04:42:09;99113.72;;;9.01;65.56
48874;BME280;35220;46.204;5.220;2022-09-21T04:47:09;99123.22;;;9.07;65.90
48874;BME280;35220;46.204;5.220;2022-09-21T04:52:10;99119.72;;;9.02;65.36
48874;BME280;35220;46.204;5.220;2022-09-21T04:57:10;99128.53;;;9.01;66.03
48874;BME280;35220;46.204;5.220;2022-09-21T05:02:11;99124.78;;;8.97;65.92
48874;BME280;35220;46.204;5.220;2022-09-21T05:07:11;99128.09;;;8.92;65.82
48874;BME280;35220;46.204;5.220;2022-09-21T05:12:11;99135.53;;;8.88;66.01
48874;BME280;35220;46.204;5.220;2022-09-21T05:17:12;99135.84;;;8.80;67.11
48874;BME280;35220;46.204;5.220;2022-09-21T05:22:12;99134.59;;;8.71;67.46
48874;BME280;35220;46.204;5.220;2022-09-21T05:27:13;99128.84;;;8.69;67.00
48874;BME280;35220;46.204;5.220;2022-09-21T05:42:38;99157.50;;;8.74;67.15
48874;BME280;35220;46.204;5.220;2022-09-21T05:47:52;99150.31;;;8.76;66.72
48874;BME280;35220;46.204;5.220;2022-09-21T06:03:29;99159.75;;;8.70;68.25
48874;BME280;35220;46.204;5.220;2022-09-21T06:08:30;99164.03;;;8.65;67.86
48874;BME280;35220;46.204;5.220;2022-09-21T06:13:30;99174.09;;;8.61;68.44
48874;BME280;35220;46.204;5.220;2022-09-21T06:18:31;99180.19;;;8.67;67.54
48874;BME280;35220;46.204;5.220;2022-09-21T06:23:35;99170.41;;;8.69;68.32
48874;BME280;35220;46.204;5.220;2022-09-21T06:28:36;99171.75;;;8.71;67.56
48874;BME280;35220;46.204;5.220;2022-09-21T06:33:36;99175.25;;;8.77;68.06
48874;BME280;35220;46.204;5.220;2022-09-21T06:38:37;99178.78;;;8.83;68.49
48874;BME280;35220;46.204;5.220;2022-09-21T06:43:37;99176.66;;;8.91;68.40
48874;BME280;35220;46.204;5.220;2022-09-21T06:48:37;99175.75;;;8.98;67.73
48874;BME280;35220;46.204;5.220;2022-09-21T06:53:38;99177.22;;;8.93;68.36
48874;BME280;35220;46.204;5.220;2022-09-21T06:58:38;99183.34;;;9.11;68.04
48874;BME280;35220;46.204;5.220;2022-09-21T07:03:40;99168.66;;;9.05;67.80
48874;BME280;35220;46.204;5.220;2022-09-21T07:08:41;99165.63;;;9.08;68.27
48874;BME280;35220;46.204;5.220;2022-09-21T07:13:43;99164.94;;;9.36;66.72
48874;BME280;35220;46.204;5.220;2022-09-21T07:18:44;99163.81;;;9.32;68.18
48874;BME280;35220;46.204;5.220;2022-09-21T07:23:45;99161.53;;;9.36;67.45
48874;BME280;35220;46.204;5.220;2022-09-21T07:28:45;99163.69;;;9.62;66.61
48874;BME280;35220;46.204;5.220;2022-09-21T07:33:45;99162.00;;;9.56;67.00
48874;BME280;35220;46.204;5.220;2022-09-21T07:38:46;99172.53;;;9.61;67.77
48874;BME280;35220;46.204;5.220;2022-09-21T07:43:46;99165.72;;;9.72;66.72
48874;BME280;35220;46.204;5.220;2022-09-21T07:48:47;99170.31;;;9.94;66.59
48874;BME280;35220;46.204;5.220;2022-09-21T07:53:47;99162.09;;;10.14;65.60
48874;BME280;35220;46.204;5.220;2022-09-21T07:58:47;99167.06;;;10.27;65.19
48874;BME280;35220;46.204;5.220;2022-09-21T08:04:09;99168.28;;;10.36;65.18
48874;BME280;35220;46.204;5.220;2022-09-21T08:09:09;99164.38;;;10.51;64.72
48874;BME280;35220;46.204;5.220;2022-09-21T08:14:10;99170.88;;;10.65;64.05
48874;BME280;35220;46.204;5.220;2022-09-21T08:19:18;99170.09;;;10.64;63.84
48874;BME280;35220;46.204;5.220;2022-09-21T08:24:19;99166.75;;;10.69;63.87
48874;BME280;35220;46.204;5.220;2022-09-21T08:29:20;99168.13;;;10.89;63.54
48874;BME280;35220;46.204;5.220;2022-09-21T08:34:20;99172.97;;;10.97;63.44
48874;BME280;35220;46.204;5.220;2022-09-21T08:39:23;99165.84;;;11.09;62.80
48874;BME280;35220;46.204;5.220;2022-09-21T08:44:28;99163.06;;;11.33;62.47
48874;BME280;35220;46.204;5.220;2022-09-21T08:49:32;99165.81;;;11.43;62.57
48874;BME280;35220;46.204;5.220;2022-09-21T08:54:43;99158.53;;;11.62;61.45
48874;BME280;35220;46.204;5.220;2022-09-21T08:59:47;99161.31;;;11.77;61.16
48874;BME280;35220;46.204;5.220;2022-09-21T09:10:29;99157.00;;;11.88;61.24
48874;BME280;35220;46.204;5.220;2022-09-21T09:20:54;99149.03;;;12.22;60.39
48874;BME280;35220;46.204;5.220;2022-09-21T09:26:01;99142.06;;;12.28;59.46
48874;BME280;35220;46.204;5.220;2022-09-21T09:31:26;99134.50;;;12.59;59.71
48874;BME280;35220;46.204;5.220;2022-09-21T09:36:29;99138.66;;;12.54;58.96
48874;BME280;35220;46.204;5.220;2022-09-21T09:52:12;99126.16;;;12.94;58.08
48874;BME280;35220;46.204;5.220;2022-09-21T09:57:14;99113.53;;;13.18;58.45
48874;BME280;35220;46.204;5.220;2022-09-21T10:02:27;99112.63;;;13.40;57.18
48874;BME280;35220;46.204;5.220;2022-09-21T10:07:35;99099.81;;;13.43;56.84
48874;BME280;35220;46.204;5.220;2022-09-21T10:12:36;99102.72;;;13.57;57.06
48874;BME280;35220;46.204;5.220;2022-09-21T10:17:38;99108.56;;;13.75;56.76
48874;BME280;35220;46.204;5.220;2022-09-21T10:22:38;99112.81;;;13.86;56.07
48874;BME280;35220;46.204;5.220;2022-09-21T10:27:42;99118.88;;;13.97;55.54
48874;BME280;35220;46.204;5.220;2022-09-21T10:32:53;99104.75;;;14.13;55.46
48874;BME280;35220;46.204;5.220;2022-09-21T10:38:15;99100.84;;;14.26;53.67
48874;BME280;35220;46.204;5.220;2022-09-21T10:43:24;99105.84;;;14.43;53.26
48874;BME280;35220;46.204;5.220;2022-09-21T10:48:28;99103.50;;;14.57;54.32
48874;BME280;35220;46.204;5.220;2022-09-21T10:53:30;99114.25;;;14.76;53.71
48874;BME280;35220;46.204;5.220;2022-09-21T10:58:32;99098.25;;;14.88;53.24
48874;BME280;35220;46.204;5.220;2022-09-21T11:09:12;99104.25;;;15.09;51.17
48874;BME280;35220;46.204;5.220;2022-09-21T11:19:41;99101.06;;;15.22;51.16
48874;BME280;35220;46.204;5.220;2022-09-21T11:24:45;99088.16;;;15.46;51.63
48874;BME280;35220;46.204;5.220;2022-09-21T11:30:01;99088.38;;;15.60;51.39
48874;BME280;35220;46.204;5.220;2022-09-21T11:41:23;99085.09;;;15.89;49.02
48874;BME280;35220;46.204;5.220;2022-09-21T11:46:21;99067.19;;;15.96;49.15
48874;BME280;35220;46.204;5.220;2022-09-21T11:56:29;99065.94;;;16.28;48.93
48874;BME280;35220;46.204;5.220;2022-09-21T12:06:45;99057.69;;;16.69;47.30
48874;BME280;35220;46.204;5.220;2022-09-21T12:17:09;99052.00;;;22.83;34.74
48874;BME280;35220;46.204;5.220;2022-09-21T12:22:24;99043.66;;;28.03;26.84
48874;BME280;35220;46.204;5.220;2022-09-21T12:27:30;99044.19;;;28.78;26.40
48874;BME280;35220;46.204;5.220;2022-09-21T12:32:48;99039.56;;;31.37;24.45
48874;BME280;35220;46.204;5.220;2022-09-21T12:38:00;99035.94;;;31.99;22.45
48874;BME280;35220;46.204;5.220;2022-09-21T12:43:22;99023.97;;;33.33;20.70
48874;BME280;35220;46.204;5.220;2022-09-21T12:48:38;99022.47;;;33.11;22.01
48874;BME280;35220;46.204;5.220;2022-09-21T12:53:44;99023.75;;;35.23;21.10
48874;BME280;35220;46.204;5.220;2022-09-21T13:09:25;99013.63;;;34.51;20.19
48874;BME280;35220;46.204;5.220;2022-09-21T13:14:29;99013.53;;;36.67;17.36
48874;BME280;35220;46.204;5.220;2022-09-21T13:19:34;99012.50;;;35.25;19.57
48874;BME280;35220;46.204;5.220;2022-09-21T13:24:35;99011.13;;;35.09;19.26
48874;BME280;35220;46.204;5.220;2022-09-21T13:29:36;99011.91;;;33.56;19.52
48874;BME280;35220;46.204;5.220;2022-09-21T13:34:43;99014.28;;;35.04;17.71
48874;BME280;35220;46.204;5.220;2022-09-21T13:55:28;99018.25;;;31.91;19.52
48874;BME280;35220;46.204;5.220;2022-09-21T14:00:40;99005.53;;;31.84;19.53
48874;BME280;35220;46.204;5.220;2022-09-21T14:06:05;98999.00;;;32.03;19.30
48874;BME280;35220;46.204;5.220;2022-09-21T14:11:15;99004.19;;;31.35;19.77
48874;BME280;35220;46.204;5.220;2022-09-21T14:21:38;98995.69;;;31.30;20.39
48874;BME280;35220;46.204;5.220;2022-09-21T14:31:41;98998.53;;;30.88;20.87
48874;BME280;35220;46.204;5.220;2022-09-21T14:36:44;99001.75;;;32.07;20.15
48874;BME280;35220;46.204;5.220;2022-09-21T14:41:49;99001.78;;;30.57;20.90
48874;BME280;35220;46.204;5.220;2022-09-21T15:02:43;98993.06;;;29.20;22.49
48874;BME280;35220;46.204;5.220;2022-09-21T15:13:50;98992.75;;;28.99;21.89
48874;BME280;35220;46.204;5.220;2022-09-21T15:19:10;98991.94;;;28.45;22.37
48874;BME280;35220;46.204;5.220;2022-09-21T15:24:19;99003.34;;;27.02;23.77
48874;BME280;35220;46.204;5.220;2022-09-21T15:29:25;99002.50;;;26.34;24.69
48874;BME280;35220;46.204;5.220;2022-09-21T15:34:26;99005.31;;;25.40;25.62
48874;BME280;35220;46.204;5.220;2022-09-21T15:39:29;98991.94;;;25.12;25.76
48874;BME280;35220;46.204;5.220;2022-09-21T15:44:33;99003.16;;;25.05;26.11
48874;BME280;35220;46.204;5.220;2022-09-21T15:49:41;99002.47;;;24.01;27.44
48874;BME280;35220;46.204;5.220;2022-09-21T15:54:47;99002.44;;;23.47;28.61
48874;BME280;35220;46.204;5.220;2022-09-21T15:59:51;99007.47;;;23.40;28.24
48874;BME280;35220;46.204;5.220;2022-09-21T16:04:53;99003.81;;;22.93;28.72
48874;BME280;35220;46.204;5.220;2022-09-21T16:09:53;99005.13;;;23.17;28.65
48874;BME280;35220;46.204;5.220;2022-09-21T16:14:59;99008.34;;;22.93;29.63
48874;BME280;35220;46.204;5.220;2022-09-21T16:20:20;99020.59;;;22.20;30.02
48874;BME280;35220;46.204;5.220;2022-09-21T16:30:54;99017.19;;;22.11;30.77
48874;BME280;35220;46.204;5.220;2022-09-21T16:35:55;99025.91;;;22.20;30.52
48874;BME280;35220;46.204;5.220;2022-09-21T16:40:56;99025.16;;;21.94;30.96
48874;BME280;35220;46.204;5.220;2022-09-21T16:45:56;99025.13;;;22.11;30.70
48874;BME280;35220;46.204;5.220;2022-09-21T16:50:57;99025.59;;;22.05;30.59
48874;BME280;35220;46.204;5.220;2022-09-21T16:55:57;99030.13;;;22.04;30.61
48874;BME280;35220;46.204;5.220;2022-09-21T17:00:58;99030.59;;;21.97;30.53
48874;BME280;35220;46.204;5.220;2022-09-21T17:05:58;99028.44;;;21.73;30.29
48874;BME280;35220;46.204;5.220;2022-09-21T17:10:59;99034.34;;;21.61;30.51
48874;BME280;35220;46.204;5.220;2022-09-21T17:16:01;99033.59;;;21.61;30.55
48874;BME280;35220;46.204;5.220;2022-09-21T17:21:01;99028.53;;;21.33;30.69
48874;BME280;35220;46.204;5.220;2022-09-21T17:26:12;99039.81;;;20.99;31.24
48874;BME280;35220;46.204;5.220;2022-09-21T17:31:15;99029.75;;;20.78;31.39
48874;BME280;35220;46.204;5.220;2022-09-21T17:36:17;99031.75;;;20.41;31.87
48874;BME280;35220;46.204;5.220;2022-09-21T17:41:24;99036.28;;;19.96;32.86
48874;BME280;35220;46.204;5.220;2022-09-21T17:51:52;99041.47;;;18.95;33.51
48874;BME280;35220;46.204;5.220;2022-09-21T18:02:24;99051.03;;;18.11;35.39
48874;BME280;35220;46.204;5.220;2022-09-21T18:07:25;99059.16;;;17.96;35.39
48874;BME280;35220;46.204;5.220;2022-09-21T18:23:28;99064.56;;;17.23;37.75
48874;BME280;35220;46.204;5.220;2022-09-21T18:28:41;99068.41;;;17.07;37.98
48874;BME280;35220;46.204;5.220;2022-09-21T18:44:38;99081.97;;;16.61;39.37
48874;BME280;35220;46.204;5.220;2022-09-21T18:50:14;99084.78;;;16.40;39.78
48874;BME280;35220;46.204;5.220;2022-09-21T18:55:27;99099.03;;;16.29;39.41
48874;BME280;35220;46.204;5.220;2022-09-21T19:00:29;99093.31;;;16.16;39.33
48874;BME280;35220;46.204;5.220;2022-09-21T19:05:34;99085.56;;;16.01;41.12
48874;BME280;35220;46.204;5.220;2022-09-21T19:10:52;99081.06;;;16.02;40.47
48874;BME280;35220;46.204;5.220;2022-09-21T19:16:04;99089.81;;;15.92;40.65
48874;BME280;35220;46.204;5.220;2022-09-21T19:21:23;99089.56;;;15.88;39.70
48874;BME280;35220;46.204;5.220;2022-09-21T19:26:32;99093.00;;;15.84;40.31
48874;BME280;35220;46.204;5.220;2022-09-21T19:31:34;99098.53;;;15.77;39.94
48874;BME280;35220;46.204;5.220;2022-09-21T19:36:35;99096.72;;;15.67;40.28
48874;BME280;35220;46.204;5.220;2022-09-21T19:52:30;99104.97;;;15.40;41.98
48874;BME280;35220;46.204;5.220;2022-09-21T19:57:33;99101.06;;;15.27;41.66
48874;BME280;35220;46.204;5.220;2022-09-21T20:08:19;99107.94;;;15.13;43.05
48874;BME280;35220;46.204;5.220;2022-09-21T20:19:20;99103.50;;;14.98;43.29
48874;BME280;35220;46.204;5.220;2022-09-21T20:24:24;99101.13;;;14.91;42.12
48874;BME280;35220;46.204;5.220;2022-09-21T20:29:26;99089.88;;;14.86;42.13
48874;BME280;35220;46.204;5.220;2022-09-21T20:34:27;99094.34;;;14.70;42.33
48874;BME280;35220;46.204;5.220;2022-09-21T20:39:27;99090.13;;;14.69;42.67
48874;BME280;35220;46.204;5.220;2022-09-21T20:44:27;99096.69;;;14.66;42.63
48874;BME280;35220;46.204;5.220;2022-09-21T20:49:28;99090.41;;;14.67;42.25
48874;BME280;35220;46.204;5.220;2022-09-21T20:54:28;99090.66;;;14.50;43.14
48874;BME280;35220;46.204;5.220;2022-09-21T20:59:28;99087.75;;;14.36;43.23
48874;BME280;35220;46.204;5.220;2022-09-21T21:04:29;99091.94;;;14.22;43.42
48874;BME280;35220;46.204;5.220;2022-09-21T21:09:31;99081.19;;;14.18;44.58
48874;BME280;35220;46.204;5.220;2022-09-21T21:14:32;99092.16;;;14.10;43.74
48874;BME280;35220;46.204;5.220;2022-09-21T21:19:32;99093.19;;;13.99;44.63
48874;BME280;35220;46.204;5.220;2022-09-21T21:24:33;99094.50;;;13.91;44.26
48874;BME280;35220;46.204;5.220;2022-09-21T21:29:39;99092.91;;;13.90;43.90
48874;BME280;35220;46.204;5.220;2022-09-21T21:34:39;99100.22;;;13.83;44.45
48874;BME280;35220;46.204;5.220;2022-09-21T21:39:39;99098.88;;;13.70;44.86
48874;BME280;35220;46.204;5.220;2022-09-21T21:44:40;99097.25;;;13.64;44.93
48874;BME280;35220;46.204;5.220;2022-09-21T21:49:40;99093.03;;;13.53;45.57
48874;BME280;35220;46.204;5.220;2022-09-21T21:54:41;99093.56;;;13.55;45.55
48874;BME280;35220;46.204;5.220;2022-09-21T21:59:41;99086.72;;;13.43;45.33
48874;BME280;35220;46.204;5.220;2022-09-21T22:04:42;99084.59;;;13.40;45.52
48874;BME280;35220;46.204;5.220;2022-09-21T22:09:43;99073.94;;;13.52;45.10
48874;BME280;35220;46.204;5.220;2022-09-21T22:14:43;99082.09;;;13.61;44.77
48874;BME280;35220;46.204;5.220;2022-09-21T22:19:45;99078.44;;;13.67;44.77
48874;BME280;35220;46.204;5.220;2022-09-21T22:24:46;99067.69;;;13.68;44.88
48874;BME280;35220;46.204;5.220;2022-09-21T22:29:47;99066.38;;;13.71;45.05
48874;BME280;35220;46.204;5.220;2022-09-21T22:34:47;99067.44;;;13.70;44.98
48874;BME280;35220;46.204;5.220;2022-09-21T22:39:49;99065.59;;;13.71;45.19
48874;BME280;35220;46.204;5.220;2022-09-21T22:44:49;99062.72;;;13.67;45.18
48874;BME280;35220;46.204;5.220;2022-09-21T22:49:50;99066.09;;;13.62;45.32
48874;BME280;35220;46.204;5.220;2022-09-21T22:54:50;99065.56;;;13.60;45.55
48874;BME280;35220;46.204;5.220;2022-09-21T22:59:51;99067.91;;;13.57;45.65
48874;BME280;35220;46.204;5.220;2022-09-21T23:04:51;99059.50;;;13.49;45.96
48874;BME280;35220;46.204;5.220;2022-09-21T23:09:51;99062.63;;;13.46;46.12
48874;BME280;35220;46.204;5.220;2022-09-21T23:14:52;99065.41;;;13.29;46.82
48874;BME280;35220;46.204;5.220;2022-09-21T23:19:52;99062.72;;;13.14;47.29
48874;BME280;35220;46.204;5.220;2022-09-21T23:24:52;99068.47;;;13.16;46.87
48874;BME280;35220;46.204;5.220;2022-09-21T23:29:53;99059.84;;;13.16;46.70
48874;BME280;35220;46.204;5.220;2022-09-21T23:34:53;99061.44;;;13.17;46.88
48874;BME280;35220;46.204;5.220;2022-09-21T23:39:53;99059.84;;;13.16;46.83
48874;BME280;35220;46.204;5.220;2022-09-21T23:44:54;99061.94;;;13.13;46.76
48874;BME280;35220;46.204;5.220;2022-09-21T23:49:54;99076.28;;;13.11;47.29
48874;BME280;35220;46.204;5.220;2022-09-21T23:54:54;99075.22;;;13.07;47.33
48874;BME280;35220;46.204;5.220;2022-09-21T23:59:55;99079.69;;;13.06;47.22
